Anderson, Nebraska
Current Conditions -  °F | °C
As of 4:35 AM on Monday 26 Jan 2015 (Local Time) from KHDE Reporting Station
Clear Clear  
Wind Chill: 27°   Ceiling: Unl
Heat Index: 34°   Visibility: 10mi
Dew Point: 26°   Wind: 9mph
Humidity: 73%   Direction: 270°W
Pressure: 29.98"   Gusts: NA
Location:  40.5251°N, 99.2414°W
Report Text: KHDE 261035Z AUTO 27008KT 10SM CLR 01/M03 A2998 RMK AO2 T00111032
Loading
Personal Weather Stations






























Interactive Weather Map New forecast layout! Learn more

10-Day Weather Forecast

Advertisements
Track Severe Weather on mobile